Time;durP1;ratioP1;P1;durP2;ratioP2;P2;SDS_P1;SDS_P2;PMS_P1;PMS_P2;Temp;Humidity;BMP_temperature;BMP_pressure;BME280_temperature;BME280_humidity;BME280_pressure;Samples;Min_cycle;Max_cycle;Signal;HPM_P1;HPM_P2
2022/05/30 00:01:07;;;;;;;1.95;1.10;;;15.90;55.40;;;;;;4963230;28;20472;-81
2022/05/30 00:03:33;;;;;;;1.25;0.93;;;15.80;55.40;;;;;;4973911;28;20122;-81
2022/05/30 00:05:58;;;;;;;1.08;0.90;;;15.80;55.40;;;;;;4963039;28;20515;-81
2022/05/30 00:08:24;;;;;;;1.35;1.10;;;15.80;55.40;;;;;;4944332;28;20050;-80
2022/05/30 00:10:50;;;;;;;1.90;1.08;;;15.70;55.40;;;;;;4943657;28;20047;-81
2022/05/30 00:13:15;;;;;;;1.08;0.90;;;15.80;55.50;;;;;;4945338;28;20031;-81
2022/05/30 00:15:41;;;;;;;1.30;0.95;;;15.80;55.50;;;;;;4977382;28;20054;-80
2022/05/30 00:18:09;;;;;;;0.93;0.90;;;15.70;55.40;;;;;;4975334;28;20025;-80
2022/05/30 00:20:36;;;;;;;1.92;1.02;;;15.70;55.50;;;;;;4977620;28;20426;-80
2022/05/30 00:23:03;;;;;;;0.98;0.90;;;15.70;55.50;;;;;;4975742;28;20035;-80
2022/05/30 00:25:29;;;;;;;1.77;1.20;;;15.70;55.60;;;;;;4974967;28;20019;-80
2022/05/30 00:27:55;;;;;;;1.30;1.20;;;15.70;55.60;;;;;;4977155;28;20027;-80
2022/05/30 00:30:20;;;;;;;2.17;1.15;;;15.70;55.60;;;;;;4960774;28;20364;-81
2022/05/30 00:32:46;;;;;;;1.90;1.20;;;15.60;55.50;;;;;;4976775;28;20027;-81
2022/05/30 00:35:13;;;;;;;2.70;1.25;;;15.60;55.60;;;;;;4956289;28;20024;-80
2022/05/30 00:37:39;;;;;;;1.20;1.10;;;15.60;55.60;;;;;;4941006;29;20063;-80
2022/05/30 00:40:06;;;;;;;1.40;1.00;;;15.60;55.60;;;;;;4957313;29;20097;-81
2022/05/30 00:42:33;;;;;;;1.80;1.10;;;15.50;55.60;;;;;;4957092;29;20031;-81
2022/05/30 00:44:59;;;;;;;1.20;0.90;;;15.50;55.60;;;;;;4966585;28;20019;-80
2022/05/30 00:47:25;;;;;;;2.30;1.10;;;15.50;55.70;;;;;;4976209;28;20507;-80
2022/05/30 00:49:54;;;;;;;1.58;1.10;;;15.50;55.70;;;;;;4974700;28;20070;-80
2022/05/30 00:52:30;;;;;;;1.40;1.00;;;15.50;55.70;;;;;;4985454;28;20030;-80
2022/05/30 00:55:05;;;;;;;1.75;1.00;;;15.40;55.80;;;;;;4996383;28;20026;-80
2022/05/30 00:57:33;;;;;;;1.40;1.05;;;15.40;55.80;;;;;;4995371;28;20084;-81
2022/05/30 01:00:12;;;;;;;1.17;0.93;;;15.40;56.10;;;;;;4990493;28;20085;-81
2022/05/30 01:02:41;;;;;;;1.30;1.13;;;15.40;55.80;;;;;;4970509;28;20374;-81
2022/05/30 01:07:57;;;;;;;1.27;1.10;;;15.40;56.00;;;;;;4994447;28;20030;-80
2022/05/30 01:10:23;;;;;;;2.25;1.20;;;15.30;55.90;;;;;;4994989;28;20117;-81
2022/05/30 01:12:52;;;;;;;3.03;1.25;;;15.30;55.90;;;;;;4992157;28;20347;-81
2022/05/30 01:15:22;;;;;;;2.08;1.13;;;15.30;56.00;;;;;;4989513;28;20506;-81
2022/05/30 01:17:49;;;;;;;1.55;1.10;;;15.30;56.00;;;;;;4975256;28;20023;-81
2022/05/30 01:20:25;;;;;;;1.25;1.08;;;15.30;56.00;;;;;;4957709;28;20074;-82
2022/05/30 01:23:21;;;;;;;1.10;1.00;;;15.30;56.10;;;;;;4975233;28;20023;-81
2022/05/30 01:26:09;;;;;;;1.48;1.20;;;15.20;56.10;;;;;;4991689;28;20121;-81
2022/05/30 01:29:08;;;;;;;1.67;1.05;;;15.20;56.20;;;;;;4994764;28;20478;-80
2022/05/30 01:31:35;;;;;;;1.40;1.20;;;15.20;56.20;;;;;;4973482;28;20033;-81
2022/05/30 01:34:01;;;;;;;1.00;0.90;;;15.10;56.10;;;;;;4975220;28;20026;-81
2022/05/30 01:36:29;;;;;;;1.98;1.10;;;15.10;56.20;;;;;;4958496;28;20165;-80
2022/05/30 01:38:55;;;;;;;1.70;1.20;;;15.10;56.20;;;;;;4974905;28;20050;-81
2022/05/30 01:41:41;;;;;;;1.95;1.30;;;15.10;56.20;;;;;;4960694;28;20390;-80
2022/05/30 01:44:07;;;;;;;2.40;1.33;;;15.10;56.20;;;;;;4974917;28;20093;-80
2022/05/30 01:46:34;;;;;;;1.40;1.10;;;15.00;56.20;;;;;;4974900;28;20023;-80
2022/05/30 01:49:02;;;;;;;1.83;1.15;;;15.00;56.30;;;;;;4974895;28;20082;-80
2022/05/30 01:51:28;;;;;;;1.40;1.08;;;15.00;56.30;;;;;;4941981;28;20035;-81
2022/05/30 01:53:58;;;;;;;0.90;0.90;;;15.00;56.30;;;;;;4975013;28;20030;-81
2022/05/30 01:56:36;;;;;;;3.03;1.58;;;15.00;56.30;;;;;;4974315;28;20034;-81
2022/05/30 01:59:03;;;;;;;1.73;1.20;;;15.00;56.30;;;;;;4975756;28;20034;-80
2022/05/30 02:01:42;;;;;;;2.22;1.17;;;15.00;56.40;;;;;;4956497;28;20027;-81
2022/05/30 02:04:08;;;;;;;1.25;1.10;;;14.90;56.30;;;;;;4987695;28;20106;-81
2022/05/30 02:06:35;;;;;;;1.55;1.00;;;14.90;56.40;;;;;;4974105;28;20023;-82
2022/05/30 02:09:03;;;;;;;2.15;1.10;;;14.90;56.40;;;;;;4955074;28;20441;-80
2022/05/30 02:11:29;;;;;;;2.45;1.27;;;14.90;56.50;;;;;;4939543;29;20444;-80
2022/05/30 02:14:12;;;;;;;1.55;1.20;;;14.80;56.40;;;;;;4941853;29;20085;-80
2022/05/30 02:19:23;;;;;;;2.15;1.20;;;14.80;56.50;;;;;;4960907;28;20035;-80
2022/05/30 02:21:49;;;;;;;1.65;1.10;;;14.80;56.50;;;;;;4945936;28;20071;-80
2022/05/30 02:24:15;;;;;;;2.63;1.10;;;14.80;56.50;;;;;;4939793;28;20037;-80
2022/05/30 02:26:41;;;;;;;2.03;1.30;;;14.70;56.50;;;;;;4941940;28;20035;-80
2022/05/30 02:29:10;;;;;;;1.70;1.25;;;14.70;56.60;;;;;;4973179;28;20105;-80
2022/05/30 02:31:44;;;;;;;1.77;1.10;;;14.70;56.50;;;;;;4959851;28;20439;-80
2022/05/30 02:36:56;;;;;;;1.27;1.00;;;14.60;56.60;;;;;;4974330;28;20370;-80
2022/05/30 02:39:26;;;;;;;1.23;1.10;;;14.60;56.50;;;;;;4953142;28;20023;-81
2022/05/30 02:42:05;;;;;;;2.35;1.20;;;14.60;56.60;;;;;;4976086;28;20031;-81
2022/05/30 02:44:34;;;;;;;1.45;1.08;;;14.50;56.60;;;;;;4958257;28;20026;-81
2022/05/30 02:47:00;;;;;;;1.50;1.30;;;14.50;56.60;;;;;;4961780;28;20468;-81
2022/05/30 02:49:27;;;;;;;1.20;1.10;;;14.50;56.60;;;;;;4960530;28;20027;-84
2022/05/30 02:51:55;;;;;;;1.52;1.23;;;14.50;56.70;;;;;;4973865;28;20376;-80
2022/05/30 02:54:22;;;;;;;1.30;1.05;;;14.50;56.70;;;;;;4942869;28;20090;-81
2022/05/30 02:57:06;;;;;;;1.77;1.27;;;14.40;56.70;;;;;;4993153;28;20084;-80
2022/05/30 02:59:34;;;;;;;1.83;1.17;;;14.40;56.60;;;;;;4979516;28;20022;-80
2022/05/30 03:02:06;;;;;;;1.58;1.08;;;14.40;56.70;;;;;;4959455;28;20031;-80
2022/05/30 03:04:32;;;;;;;1.10;1.10;;;14.40;56.80;;;;;;4941813;28;20033;-80
2022/05/30 03:07:02;;;;;;;1.52;1.02;;;14.30;56.80;;;;;;4958398;28;20051;-80
2022/05/30 03:09:29;;;;;;;1.10;1.10;;;14.30;56.80;;;;;;4973584;28;20033;-79
2022/05/30 03:12:11;;;;;;;1.58;1.10;;;14.30;56.80;;;;;;4974506;28;20035;-80
2022/05/30 03:14:37;;;;;;;1.52;1.25;;;14.30;56.80;;;;;;4957708;28;20027;-80
2022/05/30 03:17:02;;;;;;;1.83;1.27;;;14.30;56.80;;;;;;4973538;28;20375;-80
2022/05/30 03:19:29;;;;;;;1.20;1.10;;;14.20;56.80;;;;;;4941468;28;20046;-81
2022/05/30 03:21:59;;;;;;;2.65;1.58;;;14.20;56.90;;;;;;4972905;28;20054;-81
2022/05/30 03:24:25;;;;;;;1.20;1.10;;;14.20;56.90;;;;;;4972068;28;20094;-81
2022/05/30 03:26:51;;;;;;;1.25;1.15;;;14.20;56.90;;;;;;4973636;28;20460;-79
2022/05/30 03:29:19;;;;;;;2.00;1.40;;;14.20;56.90;;;;;;4941975;28;20050;-80
2022/05/30 03:31:47;;;;;;;1.23;1.05;;;14.10;56.90;;;;;;4964919;28;20042;-80
2022/05/30 03:34:13;;;;;;;1.83;1.20;;;14.10;56.90;;;;;;4972694;28;20115;-79
2022/05/30 03:36:39;;;;;;;1.83;1.25;;;14.10;56.90;;;;;;4976351;28;20022;-80
2022/05/30 03:39:28;;;;;;;2.25;1.30;;;14.10;57.00;;;;;;4959044;28;20476;-79
2022/05/30 03:42:19;;;;;;;1.67;1.30;;;14.00;56.90;;;;;;4983596;28;20113;-79
2022/05/30 03:44:53;;;;;;;1.85;1.33;;;14.00;56.90;;;;;;4981650;28;20077;-79
2022/05/30 03:47:19;;;;;;;1.60;1.20;;;14.00;57.00;;;;;;4995314;28;20030;-79
2022/05/30 03:49:46;;;;;;;1.40;1.30;;;14.00;57.00;;;;;;4993013;28;20065;-79
2022/05/30 03:52:14;;;;;;;1.55;1.20;;;14.00;57.00;;;;;;4976907;28;20054;-79
2022/05/30 03:54:41;;;;;;;1.58;1.20;;;13.90;57.00;;;;;;4960574;28;20019;-79
2022/05/30 03:57:06;;;;;;;1.30;1.20;;;13.90;57.10;;;;;;4960760;28;20411;-79
2022/05/30 03:59:32;;;;;;;2.10;1.20;;;13.90;57.10;;;;;;4977289;28;20110;-80
2022/05/30 04:01:58;;;;;;;1.42;1.30;;;13.90;57.10;;;;;;4963962;28;20038;-80
2022/05/30 04:04:24;;;;;;;1.60;1.30;;;13.90;57.10;;;;;;4997541;28;20029;-80
2022/05/30 04:06:50;;;;;;;1.48;1.10;;;13.90;57.20;;;;;;4976030;28;20518;-79
2022/05/30 04:09:17;;;;;;;1.25;1.15;;;13.80;57.20;;;;;;4961007;28;20054;-79
2022/05/30 04:12:01;;;;;;;1.55;1.30;;;13.80;57.20;;;;;;4962438;28;20558;-78
2022/05/30 04:14:59;;;;;;;1.25;1.13;;;13.80;57.20;;;;;;4956668;28;20258;-80
2022/05/30 04:17:32;;;;;;;1.85;1.30;;;13.80;57.30;;;;;;4957375;29;20404;-80
2022/05/30 04:19:57;;;;;;;1.25;1.17;;;13.80;57.30;;;;;;4960679;28;20471;-80
2022/05/30 04:22:23;;;;;;;3.60;1.40;;;13.80;57.30;;;;;;4960015;28;20037;-80
2022/05/30 04:25:07;;;;;;;1.45;1.23;;;13.70;57.30;;;;;;4981272;28;20060;-80
2022/05/30 04:27:33;;;;;;;1.50;1.30;;;13.70;57.30;;;;;;4995743;28;20023;-79
2022/05/30 04:29:59;;;;;;;2.15;1.20;;;13.70;57.40;;;;;;4973738;28;20050;-80
2022/05/30 04:32:27;;;;;;;1.55;1.25;;;13.70;57.40;;;;;;4942784;28;20100;-80
2022/05/30 04:34:54;;;;;;;1.40;1.23;;;13.70;57.50;;;;;;4959064;28;20054;-79
2022/05/30 04:37:21;;;;;;;1.92;1.30;;;13.70;57.50;;;;;;4978421;28;20381;-79
2022/05/30 04:39:51;;;;;;;1.55;1.20;;;13.70;57.50;;;;;;4979942;28;20029;-80
2022/05/30 04:42:37;;;;;;;1.45;1.23;;;13.70;57.50;;;;;;4968379;28;20066;-83
2022/05/30 04:45:21;;;;;;;1.40;1.30;;;13.70;57.60;;;;;;4971981;28;20054;-79
2022/05/30 04:48:12;;;;;;;2.22;1.20;;;13.70;57.60;;;;;;4957789;28;20058;-77
2022/05/30 04:50:38;;;;;;;1.42;1.10;;;13.70;57.60;;;;;;4972645;28;20039;-78
2022/05/30 04:53:04;;;;;;;1.75;1.27;;;13.60;57.60;;;;;;4927980;29;20396;-78
2022/05/30 04:55:59;;;;;;;1.35;1.25;;;13.70;57.70;;;;;;4964310;28;20688;-78
2022/05/30 04:58:36;;;;;;;1.38;1.23;;;13.70;57.70;;;;;;4962632;28;20026;-78
2022/05/30 05:01:17;;;;;;;1.45;1.30;;;13.60;57.70;;;;;;4958313;28;20450;-78
2022/05/30 05:03:44;;;;;;;1.55;1.25;;;13.60;57.70;;;;;;4973823;28;20035;-77
2022/05/30 05:06:16;;;;;;;1.88;1.48;;;13.60;57.80;;;;;;4972654;28;20021;-77
2022/05/30 05:08:51;;;;;;;1.33;1.23;;;13.70;57.90;;;;;;4972793;28;20034;-77
2022/05/30 05:11:37;;;;;;;1.92;1.15;;;13.60;58.10;;;;;;4964245;28;20049;-79
2022/05/30 05:14:22;;;;;;;1.42;1.33;;;13.60;57.80;;;;;;4975085;28;20085;-78
2022/05/30 05:17:07;;;;;;;2.08;1.30;;;13.70;57.90;;;;;;4973127;28;20356;-80
2022/05/30 05:19:33;;;;;;;1.77;1.10;;;13.60;57.90;;;;;;4974348;28;20034;-79
2022/05/30 05:21:59;;;;;;;1.55;1.30;;;13.70;58.00;;;;;;4939504;28;20399;-78
2022/05/30 05:24:25;;;;;;;1.45;1.35;;;13.70;58.00;;;;;;4964169;28;20383;-79
2022/05/30 05:27:16;;;;;;;2.33;1.40;;;13.70;58.10;;;;;;4960208;28;20161;-76
2022/05/30 05:29:42;;;;;;;2.85;1.48;;;13.70;58.00;;;;;;4971641;28;20022;-79
2022/05/30 05:32:09;;;;;;;1.67;1.25;;;13.70;58.00;;;;;;4971446;28;20033;-78
2022/05/30 05:34:35;;;;;;;1.92;1.15;;;13.70;58.10;;;;;;4963750;28;20074;-79
2022/05/30 05:37:02;;;;;;;1.33;1.20;;;13.70;58.10;;;;;;4955134;28;20043;-76
2022/05/30 05:39:32;;;;;;;1.25;1.20;;;13.70;58.10;;;;;;4957044;28;20140;-79
2022/05/30 05:42:01;;;;;;;1.33;1.20;;;13.70;58.10;;;;;;4955807;28;20090;-79
2022/05/30 05:44:27;;;;;;;1.63;1.30;;;13.80;58.20;;;;;;4937942;28;20027;-80
2022/05/30 05:46:57;;;;;;;1.67;1.13;;;13.80;58.20;;;;;;4952064;29;20097;-79
2022/05/30 05:49:24;;;;;;;1.58;1.10;;;13.80;58.30;;;;;;4957327;28;20035;-79
2022/05/30 05:51:55;;;;;;;1.30;1.10;;;13.80;58.20;;;;;;4955337;28;20035;-78
2022/05/30 05:54:25;;;;;;;1.75;1.13;;;13.80;58.30;;;;;;4966465;28;20139;-80
2022/05/30 05:56:52;;;;;;;1.00;1.00;;;13.80;58.20;;;;;;4968131;28;20030;-81
2022/05/30 05:59:24;;;;;;;1.45;1.20;;;13.80;58.20;;;;;;4970799;28;20030;-81
2022/05/30 06:01:50;;;;;;;1.20;1.10;;;13.90;58.30;;;;;;4939086;28;20031;-81
2022/05/30 06:04:17;;;;;;;1.30;1.20;;;13.90;58.30;;;;;;4955431;28;20031;-79
2022/05/30 06:06:47;;;;;;;1.33;1.20;;;13.90;58.30;;;;;;4971777;28;20034;-80
2022/05/30 06:09:19;;;;;;;1.15;1.05;;;13.90;58.40;;;;;;4965192;28;20045;-81
2022/05/30 06:11:49;;;;;;;1.27;1.10;;;13.90;58.30;;;;;;4970806;28;20035;-81
2022/05/30 06:14:15;;;;;;;1.80;1.20;;;13.90;58.40;;;;;;4971830;28;20042;-81
2022/05/30 06:16:42;;;;;;;1.48;1.20;;;14.00;58.40;;;;;;4939186;28;20029;-81
2022/05/30 06:19:12;;;;;;;1.33;1.20;;;14.00;58.40;;;;;;4951957;28;20031;-81
2022/05/30 06:21:39;;;;;;;1.15;1.10;;;14.00;58.40;;;;;;4970627;28;20042;-81
2022/05/30 06:24:05;;;;;;;1.90;1.13;;;14.00;58.40;;;;;;4984370;28;20183;-81
2022/05/30 06:26:50;;;;;;;1.70;1.20;;;14.00;59.00;;;;;;4974367;28;20493;-81
2022/05/30 06:29:42;;;;;;;1.30;1.20;;;14.10;58.40;;;;;;4958052;28;20025;-79
2022/05/30 06:32:10;;;;;;;1.05;1.05;;;14.10;58.40;;;;;;4954471;28;20031;-80
2022/05/30 06:34:56;;;;;;;1.63;1.13;;;14.20;58.40;;;;;;4996844;28;20490;-80
2022/05/30 06:37:22;;;;;;;1.63;1.23;;;14.20;58.40;;;;;;4954951;28;20104;-80
2022/05/30 06:39:51;;;;;;;1.05;0.98;;;14.20;58.50;;;;;;4951859;28;20060;-80
2022/05/30 06:42:32;;;;;;;1.20;1.02;;;14.20;58.40;;;;;;4970885;28;20029;-81
2022/05/30 06:45:16;;;;;;;1.25;1.05;;;14.30;58.40;;;;;;4972716;28;20127;-80
2022/05/30 06:48:01;;;;;;;1.23;1.10;;;14.30;58.40;;;;;;4964855;28;20122;-80
2022/05/30 06:50:56;;;;;;;1.08;1.00;;;14.30;58.30;;;;;;4958970;28;20051;-81
2022/05/30 06:53:22;;;;;;;1.17;1.00;;;14.40;58.30;;;;;;4952027;28;20038;-81
2022/05/30 06:55:50;;;;;;;0.90;0.90;;;14.40;58.30;;;;;;4961463;28;20027;-82
2022/05/30 06:58:16;;;;;;;2.17;1.20;;;14.50;58.30;;;;;;4951887;28;20070;-81
2022/05/30 07:00:45;;;;;;;1.10;1.00;;;14.50;58.30;;;;;;4954965;28;20085;-80
2022/05/30 07:03:41;;;;;;;1.35;1.00;;;14.50;58.20;;;;;;4970362;28;20015;-81
2022/05/30 07:06:29;;;;;;;1.23;1.00;;;14.60;58.10;;;;;;4966544;28;20041;-81
2022/05/30 07:09:19;;;;;;;1.10;1.00;;;14.60;58.10;;;;;;4950677;28;20073;-80
2022/05/30 07:12:06;;;;;;;1.10;0.98;;;14.60;58.00;;;;;;4930529;28;20047;-81
2022/05/30 07:14:32;;;;;;;1.20;1.00;;;14.60;58.00;;;;;;4950516;28;20035;-81
2022/05/30 07:16:58;;;;;;;0.80;0.80;;;14.70;58.00;;;;;;4951252;28;20027;-80
2022/05/30 07:19:24;;;;;;;1.42;1.05;;;14.70;58.00;;;;;;4942181;28;20027;-78
2022/05/30 07:21:53;;;;;;;0.80;0.80;;;14.80;57.90;;;;;;4958054;28;20062;-85
2022/05/30 07:24:38;;;;;;;1.00;0.90;;;14.80;57.90;;;;;;4973973;28;20038;-83
2022/05/30 07:27:23;;;;;;;0.90;0.90;;;14.90;57.80;;;;;;4961923;28;20140;-85
2022/05/30 07:30:27;;;;;;;1.02;1.00;;;14.90;57.70;;;;;;4911098;29;20065;-83
2022/05/30 07:33:12;;;;;;;1.15;1.00;;;15.00;57.70;;;;;;4899971;29;20111;-84
2022/05/30 07:35:56;;;;;;;0.80;0.80;;;15.00;57.70;;;;;;4956943;28;20106;-84
2022/05/30 07:38:42;;;;;;;0.90;0.90;;;15.00;57.60;;;;;;4975369;28;20042;-84
2022/05/30 07:41:14;;;;;;;0.98;0.90;;;15.10;57.70;;;;;;4977905;28;20042;-85
2022/05/30 07:43:51;;;;;;;0.98;0.98;;;15.10;57.70;;;;;;4950495;28;20456;-84
2022/05/30 07:46:41;;;;;;;0.70;0.70;;;15.20;57.70;;;;;;4974789;28;20035;-84
2022/05/30 07:49:29;;;;;;;1.05;0.82;;;15.20;57.60;;;;;;4967494;28;20043;-84
2022/05/30 07:51:58;;;;;;;0.80;0.80;;;15.20;57.50;;;;;;4959047;28;20093;-85
2022/05/30 07:54:34;;;;;;;0.85;0.85;;;15.30;57.50;;;;;;4974016;28;20065;-80
2022/05/30 07:57:06;;;;;;;0.80;0.80;;;15.30;57.50;;;;;;4974578;28;20023;-85
2022/05/30 07:59:35;;;;;;;0.70;0.70;;;15.40;57.50;;;;;;4942875;28;20093;-84
2022/05/30 08:02:01;;;;;;;0.82;0.80;;;15.40;57.40;;;;;;4974572;28;20038;-85
2022/05/30 08:04:29;;;;;;;0.88;0.88;;;15.50;57.40;;;;;;4942619;28;20078;-84
2022/05/30 08:06:58;;;;;;;1.52;0.80;;;15.50;57.40;;;;;;4974319;28;20035;-85
2022/05/30 08:09:42;;;;;;;1.13;0.95;;;15.50;58.00;;;;;;4975723;28;20102;-84
2022/05/30 08:12:16;;;;;;;0.90;0.80;;;15.50;57.30;;;;;;4943700;28;20035;-82
2022/05/30 08:14:54;;;;;;;1.40;0.85;;;15.60;57.30;;;;;;4974999;28;20029;-84
2022/05/30 08:17:21;;;;;;;1.33;0.90;;;15.60;57.30;;;;;;4983839;28;20054;-84
2022/05/30 08:19:50;;;;;;;0.90;0.90;;;15.60;57.20;;;;;;4966265;28;20019;-85
2022/05/30 08:22:22;;;;;;;1.17;0.80;;;15.60;57.20;;;;;;4949688;28;20023;-84
2022/05/30 08:24:48;;;;;;;1.42;1.00;;;15.70;57.20;;;;;;4973626;28;20046;-84
2022/05/30 08:27:16;;;;;;;0.75;0.75;;;15.70;57.30;;;;;;4942082;28;20110;-84
2022/05/30 08:29:51;;;;;;;0.77;0.77;;;15.70;57.20;;;;;;4956017;28;20058;-86
2022/05/30 08:32:18;;;;;;;0.80;0.80;;;15.80;57.20;;;;;;4971272;28;20129;-85
2022/05/30 08:34:55;;;;;;;1.58;0.90;;;15.80;57.20;;;;;;4959887;28;20037;-84
2022/05/30 08:37:25;;;;;;;0.75;0.75;;;15.90;57.10;;;;;;4926979;28;20031;-85
2022/05/30 08:42:55;;;;;;;1.10;1.00;;;15.90;57.00;;;;;;4918593;29;20074;-86
2022/05/30 08:45:34;;;;;;;1.13;0.90;;;15.90;56.90;;;;;;4917581;29;20032;-85
2022/05/30 08:49:05;;;;;;;1.00;0.80;;;16.00;56.90;;;;;;4948523;28;20035;-85
2022/05/30 08:51:44;;;;;;;0.70;0.70;;;16.00;57.00;;;;;;4955630;28;20074;-85
2022/05/30 08:54:24;;;;;;;0.85;0.85;;;16.10;56.90;;;;;;4957454;28;20027;-85
2022/05/30 08:57:23;;;;;;;1.05;0.80;;;16.10;56.90;;;;;;4976354;28;20507;-85
2022/05/30 09:00:18;;;;;;;1.10;1.00;;;16.10;56.80;;;;;;4970463;28;20115;-85
2022/05/30 09:03:10;;;;;;;0.80;0.80;;;16.20;56.80;;;;;;4974216;28;20110;-86
2022/05/30 09:06:05;;;;;;;0.80;0.80;;;16.20;56.70;;;;;;4965964;28;20019;-83
2022/05/30 09:08:40;;;;;;;0.70;0.70;;;16.20;56.90;;;;;;4960693;28;20553;-83
2022/05/30 09:11:25;;;;;;;0.82;0.80;;;16.30;56.80;;;;;;4972707;28;20042;-85
2022/05/30 09:13:56;;;;;;;0.70;0.70;;;16.30;56.60;;;;;;4957635;28;20065;-92
2022/05/30 09:16:30;;;;;;;0.80;0.80;;;16.40;56.70;;;;;;4944064;28;20077;-85
2022/05/30 09:19:01;;;;;;;1.00;0.80;;;16.40;56.60;;;;;;4970355;28;20108;-86
2022/05/30 09:21:30;;;;;;;0.95;0.90;;;16.40;56.60;;;;;;4972771;28;20039;-85
2022/05/30 09:23:56;;;;;;;0.90;0.90;;;16.50;56.60;;;;;;4960092;28;20486;-86
2022/05/30 09:26:28;;;;;;;1.20;0.90;;;16.50;56.50;;;;;;4975965;28;20066;-85
2022/05/30 09:29:03;;;;;;;0.70;0.70;;;16.60;56.60;;;;;;4975364;28;20109;-84
2022/05/30 09:31:56;;;;;;;0.75;0.70;;;16.60;56.50;;;;;;4975596;28;20030;-85
2022/05/30 09:34:45;;;;;;;1.00;1.00;;;16.70;56.50;;;;;;4974513;28;20042;-86
2022/05/30 09:37:33;;;;;;;0.70;0.70;;;16.70;56.50;;;;;;4972228;28;20036;-85
2022/05/30 09:40:19;;;;;;;1.58;0.80;;;16.80;56.30;;;;;;4956506;29;20031;-86
2022/05/30 09:43:07;;;;;;;0.70;0.70;;;16.80;56.30;;;;;;4943103;28;20464;-85
2022/05/30 09:45:35;;;;;;;0.80;0.80;;;16.90;56.30;;;;;;4959794;28;20120;-84
2022/05/30 09:48:18;;;;;;;1.52;0.90;;;16.90;56.30;;;;;;4975642;28;20031;-86
2022/05/30 09:51:12;;;;;;;1.10;0.85;;;17.00;56.30;;;;;;4965923;28;20078;-84
2022/05/30 09:53:46;;;;;;;0.85;0.82;;;17.00;56.10;;;;;;4940740;28;20062;-85
2022/05/30 09:56:17;;;;;;;0.80;0.80;;;17.10;56.10;;;;;;4972471;28;20030;-86
2022/05/30 09:58:47;;;;;;;1.05;0.80;;;17.20;56.10;;;;;;4956641;28;20019;-85
2022/05/30 10:01:49;;;;;;;1.00;0.90;;;17.20;55.90;;;;;;4957790;28;20015;-85
2022/05/30 10:04:41;;;;;;;0.80;0.80;;;17.30;55.90;;;;;;4965307;28;20023;-86
2022/05/30 10:07:14;;;;;;;1.27;0.88;;;17.40;55.90;;;;;;4971780;28;20026;-85
2022/05/30 10:09:58;;;;;;;1.65;0.80;;;17.50;55.60;;;;;;4971993;28;20951;-86
2022/05/30 10:12:44;;;;;;;1.20;0.90;;;17.50;55.60;;;;;;4971367;28;20034;-85
2022/05/30 10:15:25;;;;;;;1.33;0.90;;;17.60;55.50;;;;;;4953423;28;20023;-87
2022/05/30 10:18:13;;;;;;;0.70;0.70;;;17.70;55.50;;;;;;4951214;28;20027;-87
2022/05/30 10:20:41;;;;;;;0.93;0.80;;;17.70;55.40;;;;;;4981678;28;20047;-83
2022/05/30 10:30:44;;;;;;;0.95;0.90;;;17.90;55.20;;;;;;4971936;28;20053;-84
2022/05/30 10:33:47;;;;;;;1.00;0.90;;;17.90;55.10;;;;;;4973543;28;20166;-84
2022/05/30 10:36:29;;;;;;;0.75;0.75;;;18.00;55.10;;;;;;4955177;28;20554;-85
2022/05/30 10:38:55;;;;;;;0.80;0.80;;;18.00;55.00;;;;;;4967267;28;20038;-84
2022/05/30 10:41:40;;;;;;;0.85;0.80;;;18.10;54.90;;;;;;4955394;28;20039;-82
2022/05/30 10:44:22;;;;;;;1.27;0.80;;;18.10;54.90;;;;;;4967038;28;20023;-84
2022/05/30 10:47:18;;;;;;;1.52;1.00;;;18.10;54.90;;;;;;4949692;28;20033;-84
2022/05/30 10:50:05;;;;;;;0.70;0.70;;;18.20;54.90;;;;;;4980090;28;20352;-83
2022/05/30 10:52:38;;;;;;;1.10;0.80;;;18.20;54.70;;;;;;4972253;28;20035;-81
2022/05/30 10:55:18;;;;;;;1.20;0.98;;;18.20;54.70;;;;;;4964415;28;20033;-81
2022/05/30 10:57:55;;;;;;;0.80;0.80;;;18.30;54.70;;;;;;4947168;28;20031;-82
2022/05/30 11:00:25;;;;;;;0.70;0.70;;;18.30;54.70;;;;;;4970727;28;20086;-83
2022/05/30 11:02:58;;;;;;;1.27;1.00;;;18.40;54.70;;;;;;4967834;28;20186;-82
2022/05/30 11:06:01;;;;;;;1.02;0.90;;;18.30;54.60;;;;;;4970987;28;20030;-81
2022/05/30 11:08:42;;;;;;;1.00;0.80;;;18.40;54.70;;;;;;4953631;28;20026;-81
2022/05/30 11:11:13;;;;;;;1.25;0.90;;;18.40;54.50;;;;;;4947264;28;20050;-81
2022/05/30 11:13:48;;;;;;;0.95;0.90;;;18.40;55.20;;;;;;4970944;28;20030;-81
2022/05/30 11:16:51;;;;;;;0.80;0.75;;;18.40;54.50;;;;;;4963294;28;20034;-82
2022/05/30 11:19:54;;;;;;;1.55;1.00;;;18.50;54.50;;;;;;4965419;28;20050;-83
2022/05/30 11:22:42;;;;;;;0.82;0.82;;;18.50;54.50;;;;;;4971179;28;20453;-81
2022/05/30 11:25:15;;;;;;;0.82;0.80;;;18.50;54.40;;;;;;4952120;28;20023;-81
2022/05/30 11:28:06;;;;;;;0.85;0.85;;;18.50;54.40;;;;;;4979565;28;20107;-81
2022/05/30 11:31:00;;;;;;;1.02;0.82;;;18.50;54.40;;;;;;4951099;28;20093;-82
2022/05/30 11:33:44;;;;;;;1.13;0.95;;;18.50;54.30;;;;;;4985775;28;20027;-82
2022/05/30 11:36:24;;;;;;;1.10;1.00;;;18.50;54.20;;;;;;4972217;28;20058;-82
2022/05/30 11:39:11;;;;;;;1.25;0.80;;;18.50;54.30;;;;;;4965038;28;20467;-82
2022/05/30 11:41:57;;;;;;;0.98;0.90;;;18.50;54.20;;;;;;4970739;28;20051;-83
2022/05/30 11:44:47;;;;;;;0.90;0.90;;;18.60;54.20;;;;;;4954908;28;20030;-82
2022/05/30 11:47:43;;;;;;;1.23;0.82;;;18.60;54.30;;;;;;4982448;28;20035;-82
2022/05/30 11:50:20;;;;;;;1.83;1.10;;;18.60;54.30;;;;;;4964438;28;20027;-83
2022/05/30 11:53:02;;;;;;;1.23;1.00;;;18.60;54.20;;;;;;4972458;28;20114;-83
2022/05/30 11:55:57;;;;;;;1.15;1.00;;;18.70;54.30;;;;;;4954898;28;20038;-84
2022/05/30 11:58:44;;;;;;;0.82;0.82;;;18.70;54.30;;;;;;4966371;28;20019;-78
2022/05/30 12:01:11;;;;;;;0.82;0.82;;;18.70;54.20;;;;;;4962277;28;20047;-79
2022/05/30 12:04:40;;;;;;;0.80;0.80;;;18.70;54.10;;;;;;4972077;28;20029;-78
2022/05/30 12:07:28;;;;;;;1.52;1.00;;;18.70;54.20;;;;;;4973885;28;20472;-78
2022/05/30 12:10:16;;;;;;;0.98;0.98;;;18.80;54.10;;;;;;4973135;28;20026;-77
2022/05/30 12:12:48;;;;;;;0.73;0.73;;;18.80;54.20;;;;;;4973208;28;20145;-79
2022/05/30 12:16:11;;;;;;;1.17;0.90;;;18.80;54.10;;;;;;4973859;28;20054;-77
2022/05/30 12:24:30;;;;;;;1.80;0.90;;;18.80;54.00;;;;;;4972449;28;20039;-79
2022/05/30 12:26:57;;;;;;;1.25;0.80;;;18.90;54.20;;;;;;4974194;28;20030;-80
2022/05/30 12:29:39;;;;;;;1.08;0.70;;;18.90;54.10;;;;;;4972764;28;20352;-80
2022/05/30 12:32:29;;;;;;;1.73;0.98;;;18.90;54.00;;;;;;4972391;28;20525;-79
2022/05/30 12:34:57;;;;;;;0.80;0.80;;;19.00;54.10;;;;;;4973936;28;20114;-79
2022/05/30 12:37:39;;;;;;;0.80;0.80;;;19.00;54.00;;;;;;4972044;28;20027;-80
2022/05/30 12:40:09;;;;;;;1.00;0.80;;;19.10;54.10;;;;;;4973814;28;20089;-79
2022/05/30 12:42:41;;;;;;;1.05;0.80;;;19.10;54.00;;;;;;4957001;28;20035;-79
2022/05/30 12:45:19;;;;;;;1.05;0.88;;;19.10;53.90;;;;;;4972277;28;20054;-79
2022/05/30 12:47:52;;;;;;;0.88;0.80;;;19.10;53.90;;;;;;4972342;28;20031;-79
2022/05/30 12:50:30;;;;;;;0.95;0.85;;;19.20;53.90;;;;;;4973300;28;20456;-78
2022/05/30 12:52:59;;;;;;;0.75;0.75;;;19.20;53.80;;;;;;4971846;28;20069;-79
2022/05/30 12:55:43;;;;;;;1.63;1.05;;;19.30;53.80;;;;;;4972178;28;20015;-79
2022/05/30 12:58:11;;;;;;;1.10;1.00;;;19.30;53.70;;;;;;4972565;28;20043;-79
2022/05/30 13:00:39;;;;;;;1.40;1.00;;;19.40;53.70;;;;;;4972392;28;20022;-79
2022/05/30 13:03:23;;;;;;;0.95;0.90;;;19.40;53.70;;;;;;4973203;28;20046;-78
2022/05/30 13:06:16;;;;;;;1.10;1.00;;;19.40;53.70;;;;;;4956054;28;20031;-78
2022/05/30 13:09:05;;;;;;;1.17;1.10;;;19.50;53.60;;;;;;4966994;28;20034;-78
2022/05/30 13:11:41;;;;;;;1.67;0.80;;;19.50;53.50;;;;;;4968532;28;20037;-78
2022/05/30 13:14:16;;;;;;;1.40;0.88;;;19.60;53.50;;;;;;4971815;28;20031;-78
2022/05/30 13:16:44;;;;;;;0.93;0.90;;;19.60;53.40;;;;;;4971535;28;20066;-78
2022/05/30 13:19:13;;;;;;;2.97;1.20;;;19.60;53.40;;;;;;4971540;28;20031;-78
2022/05/30 13:21:42;;;;;;;1.05;0.95;;;19.60;53.40;;;;;;4961632;28;20399;-79
2022/05/30 13:24:28;;;;;;;1.10;0.88;;;19.70;53.30;;;;;;4971474;28;20023;-80
2022/05/30 13:26:54;;;;;;;1.08;0.80;;;19.70;53.40;;;;;;4972466;28;20034;-79
2022/05/30 13:29:20;;;;;;;0.90;0.80;;;19.80;53.30;;;;;;4971448;28;20035;-78
2022/05/30 13:31:51;;;;;;;0.88;0.88;;;19.80;53.30;;;;;;4971093;28;20062;-78
2022/05/30 13:34:23;;;;;;;0.80;0.80;;;19.80;53.20;;;;;;4952131;28;20034;-78
2022/05/30 13:36:49;;;;;;;0.82;0.80;;;19.90;53.20;;;;;;4964100;28;20474;-78
2022/05/30 13:39:15;;;;;;;1.17;0.90;;;19.90;53.10;;;;;;4954724;28;20026;-78
2022/05/30 13:41:41;;;;;;;1.42;0.90;;;19.90;53.10;;;;;;4953062;28;20043;-78
2022/05/30 13:44:14;;;;;;;1.20;0.90;;;19.90;53.00;;;;;;4954972;28;20249;-77
2022/05/30 13:46:47;;;;;;;1.70;1.02;;;19.90;53.00;;;;;;4970792;28;20348;-77
2022/05/30 13:49:12;;;;;;;1.10;0.90;;;20.00;53.00;;;;;;4963329;28;20113;-77
2022/05/30 13:51:43;;;;;;;1.33;0.90;;;20.00;53.00;;;;;;4954704;28;20117;-77
2022/05/30 13:54:11;;;;;;;1.10;0.90;;;20.00;53.00;;;;;;4970857;28;20089;-78